sensor_id;sensor_type;location;lat;lon;timestamp;P1;durP1;ratioP1;P2;durP2;ratioP2
25279;SDS011;13225;47.804;12.116;2023-04-10T00:00:59;22.33;;;9.25;;
25279;SDS011;13225;47.804;12.116;2023-04-10T00:03:25;18.45;;;9.27;;
25279;SDS011;13225;47.804;12.116;2023-04-10T00:05:52;17.85;;;9.32;;
25279;SDS011;13225;47.804;12.116;2023-04-10T00:08:19;17.55;;;9.23;;
25279;SDS011;13225;47.804;12.116;2023-04-10T00:10:48;17.58;;;9.02;;
25279;SDS011;13225;47.804;12.116;2023-04-10T00:13:14;18.27;;;9.23;;
25279;SDS011;13225;47.804;12.116;2023-04-10T00:15:41;18.77;;;9.57;;
25279;SDS011;13225;47.804;12.116;2023-04-10T00:18:07;16.45;;;8.35;;
25279;SDS011;13225;47.804;12.116;2023-04-10T00:20:32;18.80;;;9.02;;
25279;SDS011;13225;47.804;12.116;2023-04-10T00:22:58;18.10;;;8.85;;
25279;SDS011;13225;47.804;12.116;2023-04-10T00:25:23;17.80;;;8.70;;
25279;SDS011;13225;47.804;12.116;2023-04-10T00:27:52;16.88;;;8.30;;
25279;SDS011;13225;47.804;12.116;2023-04-10T00:30:18;18.25;;;9.30;;
25279;SDS011;13225;47.804;12.116;2023-04-10T00:32:45;18.23;;;9.15;;
25279;SDS011;13225;47.804;12.116;2023-04-10T00:35:10;15.70;;;7.90;;
25279;SDS011;13225;47.804;12.116;2023-04-10T00:37:36;18.85;;;8.60;;
25279;SDS011;13225;47.804;12.116;2023-04-10T00:40:02;23.48;;;9.90;;
25279;SDS011;13225;47.804;12.116;2023-04-10T00:42:28;16.15;;;8.40;;
25279;SDS011;13225;47.804;12.116;2023-04-10T00:44:54;19.33;;;9.35;;
25279;SDS011;13225;47.804;12.116;2023-04-10T00:47:19;20.25;;;10.05;;
25279;SDS011;13225;47.804;12.116;2023-04-10T00:49:45;19.02;;;9.40;;
25279;SDS011;13225;47.804;12.116;2023-04-10T00:52:11;17.90;;;9.38;;
25279;SDS011;13225;47.804;12.116;2023-04-10T00:54:37;19.55;;;9.45;;
25279;SDS011;13225;47.804;12.116;2023-04-10T00:57:03;15.30;;;8.25;;
25279;SDS011;13225;47.804;12.116;2023-04-10T00:59:29;17.67;;;9.02;;
25279;SDS011;13225;47.804;12.116;2023-04-10T01:01:55;17.27;;;8.25;;
25279;SDS011;13225;47.804;12.116;2023-04-10T01:04:21;17.35;;;7.85;;
25279;SDS011;13225;47.804;12.116;2023-04-10T01:07:13;18.35;;;9.15;;
25279;SDS011;13225;47.804;12.116;2023-04-10T01:09:58;17.25;;;7.97;;
25279;SDS011;13225;47.804;12.116;2023-04-10T01:15:19;15.45;;;8.25;;
25279;SDS011;13225;47.804;12.116;2023-04-10T01:20:22;14.55;;;7.57;;
25279;SDS011;13225;47.804;12.116;2023-04-10T01:30:36;16.52;;;8.15;;
25279;SDS011;13225;47.804;12.116;2023-04-10T01:33:02;16.25;;;8.43;;
25279;SDS011;13225;47.804;12.116;2023-04-10T01:35:32;16.70;;;8.48;;
25279;SDS011;13225;47.804;12.116;2023-04-10T01:37:59;14.43;;;7.57;;
25279;SDS011;13225;47.804;12.116;2023-04-10T01:40:26;18.52;;;8.63;;
25279;SDS011;13225;47.804;12.116;2023-04-10T01:42:54;16.30;;;8.15;;
25279;SDS011;13225;47.804;12.116;2023-04-10T01:45:22;16.25;;;8.20;;
25279;SDS011;13225;47.804;12.116;2023-04-10T01:47:52;16.13;;;8.15;;
25279;SDS011;13225;47.804;12.116;2023-04-10T01:50:19;15.90;;;8.25;;
25279;SDS011;13225;47.804;12.116;2023-04-10T01:52:47;18.98;;;8.57;;
25279;SDS011;13225;47.804;12.116;2023-04-10T01:55:16;17.83;;;8.80;;
25279;SDS011;13225;47.804;12.116;2023-04-10T01:57:43;17.55;;;8.73;;
25279;SDS011;13225;47.804;12.116;2023-04-10T02:00:10;15.38;;;7.80;;
25279;SDS011;13225;47.804;12.116;2023-04-10T02:02:36;18.50;;;8.65;;
25279;SDS011;13225;47.804;12.116;2023-04-10T02:05:02;17.77;;;8.55;;
25279;SDS011;13225;47.804;12.116;2023-04-10T02:07:43;18.27;;;9.02;;
25279;SDS011;13225;47.804;12.116;2023-04-10T02:13:04;17.48;;;8.85;;
25279;SDS011;13225;47.804;12.116;2023-04-10T02:15:31;19.60;;;9.05;;
25279;SDS011;13225;47.804;12.116;2023-04-10T02:17:59;17.95;;;8.98;;
25279;SDS011;13225;47.804;12.116;2023-04-10T02:20:28;19.05;;;9.00;;
25279;SDS011;13225;47.804;12.116;2023-04-10T02:22:55;21.23;;;10.05;;
25279;SDS011;13225;47.804;12.116;2023-04-10T02:25:23;20.17;;;9.45;;
25279;SDS011;13225;47.804;12.116;2023-04-10T02:27:50;21.83;;;10.13;;
25279;SDS011;13225;47.804;12.116;2023-04-10T02:30:15;22.95;;;11.07;;
25279;SDS011;13225;47.804;12.116;2023-04-10T02:32:41;23.23;;;10.98;;
25279;SDS011;13225;47.804;12.116;2023-04-10T02:35:06;22.75;;;10.45;;
25279;SDS011;13225;47.804;12.116;2023-04-10T02:37:32;24.52;;;10.57;;
25279;SDS011;13225;47.804;12.116;2023-04-10T02:39:58;23.20;;;10.95;;
25279;SDS011;13225;47.804;12.116;2023-04-10T02:42:24;24.42;;;11.23;;
25279;SDS011;13225;47.804;12.116;2023-04-10T02:44:50;23.95;;;11.27;;
25279;SDS011;13225;47.804;12.116;2023-04-10T02:47:15;23.88;;;10.63;;
25279;SDS011;13225;47.804;12.116;2023-04-10T02:49:42;29.15;;;11.52;;
25279;SDS011;13225;47.804;12.116;2023-04-10T02:52:08;22.60;;;10.75;;
25279;SDS011;13225;47.804;12.116;2023-04-10T02:54:33;24.52;;;11.70;;
25279;SDS011;13225;47.804;12.116;2023-04-10T02:56:59;25.50;;;11.65;;
25279;SDS011;13225;47.804;12.116;2023-04-10T02:59:25;25.63;;;11.35;;
25279;SDS011;13225;47.804;12.116;2023-04-10T03:01:51;26.95;;;11.50;;
25279;SDS011;13225;47.804;12.116;2023-04-10T03:04:17;22.38;;;10.32;;
25279;SDS011;13225;47.804;12.116;2023-04-10T03:06:43;25.40;;;11.43;;
25279;SDS011;13225;47.804;12.116;2023-04-10T03:09:08;28.15;;;12.65;;
25279;SDS011;13225;47.804;12.116;2023-04-10T03:11:34;24.10;;;10.98;;
25279;SDS011;13225;47.804;12.116;2023-04-10T03:14:00;25.90;;;12.20;;
25279;SDS011;13225;47.804;12.116;2023-04-10T03:16:25;23.88;;;11.88;;
25279;SDS011;13225;47.804;12.116;2023-04-10T03:18:54;26.08;;;11.85;;
25279;SDS011;13225;47.804;12.116;2023-04-10T03:21:20;27.73;;;11.70;;
25279;SDS011;13225;47.804;12.116;2023-04-10T03:23:46;32.08;;;13.02;;
25279;SDS011;13225;47.804;12.116;2023-04-10T03:26:11;28.70;;;12.65;;
25279;SDS011;13225;47.804;12.116;2023-04-10T03:28:37;26.90;;;12.13;;
25279;SDS011;13225;47.804;12.116;2023-04-10T03:31:03;30.40;;;13.27;;
25279;SDS011;13225;47.804;12.116;2023-04-10T03:33:30;30.10;;;12.48;;
25279;SDS011;13225;47.804;12.116;2023-04-10T03:35:56;25.38;;;10.95;;
25279;SDS011;13225;47.804;12.116;2023-04-10T03:38:22;26.90;;;11.50;;
25279;SDS011;13225;47.804;12.116;2023-04-10T03:40:47;26.63;;;11.13;;
25279;SDS011;13225;47.804;12.116;2023-04-10T03:43:13;24.23;;;10.60;;
25279;SDS011;13225;47.804;12.116;2023-04-10T03:45:38;24.80;;;10.73;;
25279;SDS011;13225;47.804;12.116;2023-04-10T03:48:04;26.90;;;11.20;;
25279;SDS011;13225;47.804;12.116;2023-04-10T03:50:30;23.92;;;10.38;;
25279;SDS011;13225;47.804;12.116;2023-04-10T03:52:56;23.70;;;10.23;;
25279;SDS011;13225;47.804;12.116;2023-04-10T03:55:21;24.30;;;10.50;;
25279;SDS011;13225;47.804;12.116;2023-04-10T03:57:47;23.65;;;10.25;;
25279;SDS011;13225;47.804;12.116;2023-04-10T04:00:13;21.83;;;9.85;;
25279;SDS011;13225;47.804;12.116;2023-04-10T04:02:39;23.38;;;11.35;;
25279;SDS011;13225;47.804;12.116;2023-04-10T04:05:05;22.13;;;10.15;;
25279;SDS011;13225;47.804;12.116;2023-04-10T04:07:31;19.05;;;9.45;;
25279;SDS011;13225;47.804;12.116;2023-04-10T04:09:57;21.73;;;9.10;;
25279;SDS011;13225;47.804;12.116;2023-04-10T04:12:24;20.80;;;9.30;;
25279;SDS011;13225;47.804;12.116;2023-04-10T04:14:50;23.23;;;10.10;;
25279;SDS011;13225;47.804;12.116;2023-04-10T04:17:15;20.88;;;9.80;;
25279;SDS011;13225;47.804;12.116;2023-04-10T04:19:41;21.52;;;9.60;;
25279;SDS011;13225;47.804;12.116;2023-04-10T04:22:06;18.02;;;8.98;;
25279;SDS011;13225;47.804;12.116;2023-04-10T04:24:32;21.17;;;9.93;;
25279;SDS011;13225;47.804;12.116;2023-04-10T04:26:58;21.08;;;9.75;;
25279;SDS011;13225;47.804;12.116;2023-04-10T04:29:23;17.38;;;9.00;;
25279;SDS011;13225;47.804;12.116;2023-04-10T04:31:49;21.77;;;9.55;;
25279;SDS011;13225;47.804;12.116;2023-04-10T04:34:15;19.92;;;9.35;;
25279;SDS011;13225;47.804;12.116;2023-04-10T04:36:40;21.40;;;9.55;;
25279;SDS011;13225;47.804;12.116;2023-04-10T04:39:06;22.27;;;10.00;;
25279;SDS011;13225;47.804;12.116;2023-04-10T04:41:32;23.48;;;10.95;;
25279;SDS011;13225;47.804;12.116;2023-04-10T04:43:58;21.95;;;9.70;;
25279;SDS011;13225;47.804;12.116;2023-04-10T04:46:25;22.33;;;10.10;;
25279;SDS011;13225;47.804;12.116;2023-04-10T04:48:51;22.67;;;10.27;;
25279;SDS011;13225;47.804;12.116;2023-04-10T04:51:17;22.60;;;10.25;;
25279;SDS011;13225;47.804;12.116;2023-04-10T04:53:42;20.15;;;10.55;;
25279;SDS011;13225;47.804;12.116;2023-04-10T04:56:08;24.75;;;10.80;;
25279;SDS011;13225;47.804;12.116;2023-04-10T04:58:33;25.10;;;13.10;;
25279;SDS011;13225;47.804;12.116;2023-04-10T05:00:59;27.33;;;13.25;;
25279;SDS011;13225;47.804;12.116;2023-04-10T05:03:25;24.33;;;11.65;;
25279;SDS011;13225;47.804;12.116;2023-04-10T05:05:52;21.00;;;10.05;;
25279;SDS011;13225;47.804;12.116;2023-04-10T05:08:18;24.60;;;10.60;;
25279;SDS011;13225;47.804;12.116;2023-04-10T05:10:44;23.30;;;10.75;;
25279;SDS011;13225;47.804;12.116;2023-04-10T05:13:10;20.02;;;9.90;;
25279;SDS011;13225;47.804;12.116;2023-04-10T05:15:36;22.55;;;10.52;;
25279;SDS011;13225;47.804;12.116;2023-04-10T05:18:01;23.17;;;10.85;;
25279;SDS011;13225;47.804;12.116;2023-04-10T05:20:27;23.40;;;10.63;;
25279;SDS011;13225;47.804;12.116;2023-04-10T05:22:52;21.90;;;10.68;;
25279;SDS011;13225;47.804;12.116;2023-04-10T05:25:18;22.42;;;10.73;;
25279;SDS011;13225;47.804;12.116;2023-04-10T05:27:43;20.98;;;10.02;;
25279;SDS011;13225;47.804;12.116;2023-04-10T05:30:09;18.05;;;8.90;;
25279;SDS011;13225;47.804;12.116;2023-04-10T05:32:35;17.83;;;9.00;;
25279;SDS011;13225;47.804;12.116;2023-04-10T05:35:01;19.38;;;9.30;;
25279;SDS011;13225;47.804;12.116;2023-04-10T05:37:27;20.63;;;9.05;;
25279;SDS011;13225;47.804;12.116;2023-04-10T05:39:52;23.70;;;11.27;;
25279;SDS011;13225;47.804;12.116;2023-04-10T05:42:18;22.67;;;12.50;;
25279;SDS011;13225;47.804;12.116;2023-04-10T05:44:43;23.40;;;11.05;;
25279;SDS011;13225;47.804;12.116;2023-04-10T05:47:09;20.13;;;9.98;;
25279;SDS011;13225;47.804;12.116;2023-04-10T05:49:35;22.70;;;9.73;;
25279;SDS011;13225;47.804;12.116;2023-04-10T05:52:00;35.88;;;15.07;;
25279;SDS011;13225;47.804;12.116;2023-04-10T05:54:26;23.52;;;11.60;;
25279;SDS011;13225;47.804;12.116;2023-04-10T05:56:51;21.58;;;10.45;;
25279;SDS011;13225;47.804;12.116;2023-04-10T05:59:18;21.75;;;10.65;;
25279;SDS011;13225;47.804;12.116;2023-04-10T06:01:44;21.58;;;10.57;;
25279;SDS011;13225;47.804;12.116;2023-04-10T06:04:11;21.65;;;10.25;;
25279;SDS011;13225;47.804;12.116;2023-04-10T06:06:37;23.98;;;10.43;;
25279;SDS011;13225;47.804;12.116;2023-04-10T06:09:02;23.73;;;10.50;;
25279;SDS011;13225;47.804;12.116;2023-04-10T06:11:28;19.70;;;8.95;;
25279;SDS011;13225;47.804;12.116;2023-04-10T06:13:54;19.02;;;10.13;;
25279;SDS011;13225;47.804;12.116;2023-04-10T06:16:20;23.67;;;10.70;;
25279;SDS011;13225;47.804;12.116;2023-04-10T06:18:45;21.88;;;10.07;;
25279;SDS011;13225;47.804;12.116;2023-04-10T06:21:12;46.78;;;17.40;;
25279;SDS011;13225;47.804;12.116;2023-04-10T06:23:38;23.58;;;9.57;;
25279;SDS011;13225;47.804;12.116;2023-04-10T06:26:04;22.30;;;11.27;;
25279;SDS011;13225;47.804;12.116;2023-04-10T06:28:30;20.27;;;10.65;;
25279;SDS011;13225;47.804;12.116;2023-04-10T06:30:56;21.42;;;10.35;;
25279;SDS011;13225;47.804;12.116;2023-04-10T06:33:21;22.02;;;10.43;;
25279;SDS011;13225;47.804;12.116;2023-04-10T06:35:47;20.55;;;9.85;;
25279;SDS011;13225;47.804;12.116;2023-04-10T06:38:12;20.73;;;10.95;;
25279;SDS011;13225;47.804;12.116;2023-04-10T06:40:39;21.25;;;10.65;;
25279;SDS011;13225;47.804;12.116;2023-04-10T06:43:05;23.20;;;10.23;;
25279;SDS011;13225;47.804;12.116;2023-04-10T06:45:30;21.77;;;10.55;;
25279;SDS011;13225;47.804;12.116;2023-04-10T06:47:56;21.13;;;10.77;;
25279;SDS011;13225;47.804;12.116;2023-04-10T06:50:22;19.58;;;9.90;;
25279;SDS011;13225;47.804;12.116;2023-04-10T06:52:48;21.13;;;10.23;;
25279;SDS011;13225;47.804;12.116;2023-04-10T06:55:14;15.63;;;8.38;;
25279;SDS011;13225;47.804;12.116;2023-04-10T06:57:39;17.77;;;8.75;;
25279;SDS011;13225;47.804;12.116;2023-04-10T07:00:06;14.35;;;7.93;;
25279;SDS011;13225;47.804;12.116;2023-04-10T07:02:33;14.80;;;8.20;;
25279;SDS011;13225;47.804;12.116;2023-04-10T07:04:58;16.52;;;8.65;;
25279;SDS011;13225;47.804;12.116;2023-04-10T07:07:24;15.75;;;8.52;;
25279;SDS011;13225;47.804;12.116;2023-04-10T07:09:50;14.25;;;7.18;;
25279;SDS011;13225;47.804;12.116;2023-04-10T07:12:16;14.98;;;8.52;;
25279;SDS011;13225;47.804;12.116;2023-04-10T07:14:41;14.13;;;8.23;;
25279;SDS011;13225;47.804;12.116;2023-04-10T07:17:07;16.35;;;7.57;;
25279;SDS011;13225;47.804;12.116;2023-04-10T07:19:33;15.35;;;7.82;;
25279;SDS011;13225;47.804;12.116;2023-04-10T07:21:59;16.60;;;8.13;;
25279;SDS011;13225;47.804;12.116;2023-04-10T07:24:25;16.10;;;8.50;;
25279;SDS011;13225;47.804;12.116;2023-04-10T07:26:51;15.50;;;8.25;;
25279;SDS011;13225;47.804;12.116;2023-04-10T07:29:16;14.82;;;7.82;;
25279;SDS011;13225;47.804;12.116;2023-04-10T07:31:42;16.95;;;8.15;;
25279;SDS011;13225;47.804;12.116;2023-04-10T07:34:09;14.15;;;7.93;;
25279;SDS011;13225;47.804;12.116;2023-04-10T07:36:35;18.80;;;9.02;;
25279;SDS011;13225;47.804;12.116;2023-04-10T07:39:01;15.45;;;8.52;;
25279;SDS011;13225;47.804;12.116;2023-04-10T07:41:26;16.17;;;8.43;;
25279;SDS011;13225;47.804;12.116;2023-04-10T07:43:52;13.93;;;8.18;;
25279;SDS011;13225;47.804;12.116;2023-04-10T07:46:17;13.02;;;7.00;;
25279;SDS011;13225;47.804;12.116;2023-04-10T07:48:43;14.23;;;7.85;;
25279;SDS011;13225;47.804;12.116;2023-04-10T07:51:11;15.95;;;7.72;;
25279;SDS011;13225;47.804;12.116;2023-04-10T07:53:37;17.25;;;8.70;;
25279;SDS011;13225;47.804;12.116;2023-04-10T07:56:03;7.35;;;4.75;;
25279;SDS011;13225;47.804;12.116;2023-04-10T07:58:28;14.30;;;8.18;;
25279;SDS011;13225;47.804;12.116;2023-04-10T08:00:55;13.93;;;7.90;;
25279;SDS011;13225;47.804;12.116;2023-04-10T08:03:21;15.38;;;7.55;;
25279;SDS011;13225;47.804;12.116;2023-04-10T08:05:47;15.48;;;8.05;;
25279;SDS011;13225;47.804;12.116;2023-04-10T08:08:15;12.68;;;7.15;;
25279;SDS011;13225;47.804;12.116;2023-04-10T08:10:41;12.05;;;7.20;;
25279;SDS011;13225;47.804;12.116;2023-04-10T08:13:06;13.15;;;6.95;;
25279;SDS011;13225;47.804;12.116;2023-04-10T08:15:32;11.18;;;7.32;;
25279;SDS011;13225;47.804;12.116;2023-04-10T08:17:58;11.32;;;6.20;;
25279;SDS011;13225;47.804;12.116;2023-04-10T08:20:23;12.63;;;6.88;;
25279;SDS011;13225;47.804;12.116;2023-04-10T08:22:49;12.10;;;7.03;;
25279;SDS011;13225;47.804;12.116;2023-04-10T08:25:14;11.25;;;6.78;;
25279;SDS011;13225;47.804;12.116;2023-04-10T08:27:40;11.93;;;7.03;;
25279;SDS011;13225;47.804;12.116;2023-04-10T08:30:06;14.00;;;7.63;;
25279;SDS011;13225;47.804;12.116;2023-04-10T08:32:32;11.13;;;6.10;;
25279;SDS011;13225;47.804;12.116;2023-04-10T08:34:57;10.95;;;5.90;;
25279;SDS011;13225;47.804;12.116;2023-04-10T08:37:24;12.73;;;6.72;;
25279;SDS011;13225;47.804;12.116;2023-04-10T08:39:50;12.07;;;6.80;;
25279;SDS011;13225;47.804;12.116;2023-04-10T08:42:16;12.52;;;7.15;;
25279;SDS011;13225;47.804;12.116;2023-04-10T08:44:41;12.48;;;6.43;;
25279;SDS011;13225;47.804;12.116;2023-04-10T08:47:07;12.00;;;6.53;;
25279;SDS011;13225;47.804;12.116;2023-04-10T08:49:42;12.48;;;6.88;;
25279;SDS011;13225;47.804;12.116;2023-04-10T08:54:46;12.65;;;6.75;;
25279;SDS011;13225;47.804;12.116;2023-04-10T08:57:14;10.82;;;6.20;;
25279;SDS011;13225;47.804;12.116;2023-04-10T08:59:45;11.02;;;6.70;;
25279;SDS011;13225;47.804;12.116;2023-04-10T09:02:11;13.70;;;7.07;;
25279;SDS011;13225;47.804;12.116;2023-04-10T09:04:37;10.80;;;6.45;;
25279;SDS011;13225;47.804;12.116;2023-04-10T09:07:02;8.98;;;5.70;;
25279;SDS011;13225;47.804;12.116;2023-04-10T09:09:28;11.23;;;6.93;;
25279;SDS011;13225;47.804;12.116;2023-04-10T09:11:57;10.75;;;6.35;;
25279;SDS011;13225;47.804;12.116;2023-04-10T09:14:25;9.32;;;5.88;;
25279;SDS011;13225;47.804;12.116;2023-04-10T09:16:53;10.52;;;6.32;;
25279;SDS011;13225;47.804;12.116;2023-04-10T09:19:34;12.13;;;6.68;;
25279;SDS011;13225;47.804;12.116;2023-04-10T09:22:00;11.55;;;6.93;;
25279;SDS011;13225;47.804;12.116;2023-04-10T09:24:25;9.07;;;4.80;;
25279;SDS011;13225;47.804;12.116;2023-04-10T09:26:51;10.75;;;5.90;;
25279;SDS011;13225;47.804;12.116;2023-04-10T09:29:17;9.15;;;5.93;;
25279;SDS011;13225;47.804;12.116;2023-04-10T09:31:43;8.50;;;5.65;;
25279;SDS011;13225;47.804;12.116;2023-04-10T09:36:35;9.63;;;6.30;;
25279;SDS011;13225;47.804;12.116;2023-04-10T09:39:03;8.00;;;5.00;;
25279;SDS011;13225;47.804;12.116;2023-04-10T09:41:29;8.48;;;5.60;;
25279;SDS011;13225;47.804;12.116;2023-04-10T09:44:08;8.23;;;5.80;;
25279;SDS011;13225;47.804;12.116;2023-04-10T09:46:35;9.57;;;5.95;;
25279;SDS011;13225;47.804;12.116;2023-04-10T09:49:01;6.63;;;4.45;;
25279;SDS011;13225;47.804;12.116;2023-04-10T09:51:33;8.27;;;5.53;;
25279;SDS011;13225;47.804;12.116;2023-04-10T09:54:01;6.03;;;4.10;;
25279;SDS011;13225;47.804;12.116;2023-04-10T09:56:28;8.70;;;5.40;;
25279;SDS011;13225;47.804;12.116;2023-04-10T09:58:58;8.80;;;5.45;;
25279;SDS011;13225;47.804;12.116;2023-04-10T10:01:25;7.13;;;4.78;;
25279;SDS011;13225;47.804;12.116;2023-04-10T10:03:53;7.85;;;4.93;;
25279;SDS011;13225;47.804;12.116;2023-04-10T10:06:19;7.55;;;4.25;;
25279;SDS011;13225;47.804;12.116;2023-04-10T10:08:45;7.80;;;4.68;;
25279;SDS011;13225;47.804;12.116;2023-04-10T10:11:12;6.22;;;4.45;;
25279;SDS011;13225;47.804;12.116;2023-04-10T10:13:46;4.18;;;2.85;;
25279;SDS011;13225;47.804;12.116;2023-04-10T10:16:19;7.60;;;4.82;;
25279;SDS011;13225;47.804;12.116;2023-04-10T10:19:12;6.45;;;4.43;;
25279;SDS011;13225;47.804;12.116;2023-04-10T10:21:44;6.70;;;4.25;;
25279;SDS011;13225;47.804;12.116;2023-04-10T10:24:12;6.57;;;4.68;;
25279;SDS011;13225;47.804;12.116;2023-04-10T10:26:39;6.15;;;4.72;;
25279;SDS011;13225;47.804;12.116;2023-04-10T10:29:07;6.63;;;4.80;;
25279;SDS011;13225;47.804;12.116;2023-04-10T10:31:35;7.80;;;4.80;;
25279;SDS011;13225;47.804;12.116;2023-04-10T10:34:02;6.55;;;4.68;;
25279;SDS011;13225;47.804;12.116;2023-04-10T10:36:29;6.05;;;4.45;;
25279;SDS011;13225;47.804;12.116;2023-04-10T10:47:49;6.60;;;4.90;;
25279;SDS011;13225;47.804;12.116;2023-04-10T10:50:17;7.07;;;5.25;;
25279;SDS011;13225;47.804;12.116;2023-04-10T10:55:26;6.47;;;4.18;;
25279;SDS011;13225;47.804;12.116;2023-04-10T10:58:00;7.95;;;5.20;;
25279;SDS011;13225;47.804;12.116;2023-04-10T11:05:52;7.20;;;4.75;;
25279;SDS011;13225;47.804;12.116;2023-04-10T11:11:10;5.53;;;3.45;;
25279;SDS011;13225;47.804;12.116;2023-04-10T11:14:19;6.28;;;4.13;;
25279;SDS011;13225;47.804;12.116;2023-04-10T11:19:01;6.20;;;4.25;;
25279;SDS011;13225;47.804;12.116;2023-04-10T11:21:32;6.25;;;4.15;;
25279;SDS011;13225;47.804;12.116;2023-04-10T11:29:02;5.50;;;3.80;;
25279;SDS011;13225;47.804;12.116;2023-04-10T11:31:43;6.75;;;4.47;;
25279;SDS011;13225;47.804;12.116;2023-04-10T11:34:10;5.85;;;4.00;;
25279;SDS011;13225;47.804;12.116;2023-04-10T11:36:39;5.78;;;3.65;;
25279;SDS011;13225;47.804;12.116;2023-04-10T11:39:08;6.40;;;4.20;;
25279;SDS011;13225;47.804;12.116;2023-04-10T11:41:43;6.55;;;4.88;;
25279;SDS011;13225;47.804;12.116;2023-04-10T11:44:17;2.80;;;2.17;;
25279;SDS011;13225;47.804;12.116;2023-04-10T11:46:56;6.20;;;4.50;;
25279;SDS011;13225;47.804;12.116;2023-04-10T11:49:23;6.75;;;4.80;;
25279;SDS011;13225;47.804;12.116;2023-04-10T11:51:51;4.63;;;3.42;;
25279;SDS011;13225;47.804;12.116;2023-04-10T11:54:19;7.40;;;3.92;;
25279;SDS011;13225;47.804;12.116;2023-04-10T11:56:56;6.25;;;4.00;;
25279;SDS011;13225;47.804;12.116;2023-04-10T11:59:35;4.45;;;3.00;;
25279;SDS011;13225;47.804;12.116;2023-04-10T12:02:11;4.68;;;3.58;;
25279;SDS011;13225;47.804;12.116;2023-04-10T12:04:44;3.13;;;2.08;;
25279;SDS011;13225;47.804;12.116;2023-04-10T12:07:09;4.72;;;2.95;;
25279;SDS011;13225;47.804;12.116;2023-04-10T12:09:35;6.40;;;4.28;;
25279;SDS011;13225;47.804;12.116;2023-04-10T12:12:02;5.93;;;4.38;;
25279;SDS011;13225;47.804;12.116;2023-04-10T12:16:59;4.72;;;3.65;;
25279;SDS011;13225;47.804;12.116;2023-04-10T12:19:25;5.60;;;4.55;;
25279;SDS011;13225;47.804;12.116;2023-04-10T12:21:51;4.63;;;3.35;;
25279;SDS011;13225;47.804;12.116;2023-04-10T12:27:18;5.75;;;4.22;;
25279;SDS011;13225;47.804;12.116;2023-04-10T12:29:46;6.68;;;4.32;;
25279;SDS011;13225;47.804;12.116;2023-04-10T12:32:12;5.28;;;3.92;;
25279;SDS011;13225;47.804;12.116;2023-04-10T12:34:38;4.93;;;3.75;;
25279;SDS011;13225;47.804;12.116;2023-04-10T12:37:04;4.20;;;3.42;;
25279;SDS011;13225;47.804;12.116;2023-04-10T12:39:30;4.22;;;2.58;;
25279;SDS011;13225;47.804;12.116;2023-04-10T12:42:13;4.88;;;3.78;;
25279;SDS011;13225;47.804;12.116;2023-04-10T12:47:22;4.15;;;3.22;;
25279;SDS011;13225;47.804;12.116;2023-04-10T12:52:34;4.78;;;3.38;;
25279;SDS011;13225;47.804;12.116;2023-04-10T12:55:08;4.75;;;3.53;;
25279;SDS011;13225;47.804;12.116;2023-04-10T12:57:35;4.53;;;3.90;;
25279;SDS011;13225;47.804;12.116;2023-04-10T13:00:02;5.78;;;3.40;;
25279;SDS011;13225;47.804;12.116;2023-04-10T13:02:34;3.50;;;3.15;;
25279;SDS011;13225;47.804;12.116;2023-04-10T13:05:01;3.85;;;3.38;;
25279;SDS011;13225;47.804;12.116;2023-04-10T13:07:27;4.90;;;3.67;;
25279;SDS011;13225;47.804;12.116;2023-04-10T13:09:53;5.22;;;3.90;;
25279;SDS011;13225;47.804;12.116;2023-04-10T13:12:18;4.60;;;3.72;;
25279;SDS011;13225;47.804;12.116;2023-04-10T13:14:44;6.28;;;3.45;;
25279;SDS011;13225;47.804;12.116;2023-04-10T13:17:10;4.28;;;3.30;;
25279;SDS011;13225;47.804;12.116;2023-04-10T13:19:36;4.72;;;3.88;;
25279;SDS011;13225;47.804;12.116;2023-04-10T13:22:01;3.50;;;3.20;;
25279;SDS011;13225;47.804;12.116;2023-04-10T13:24:28;5.10;;;3.60;;
25279;SDS011;13225;47.804;12.116;2023-04-10T13:26:55;4.00;;;3.00;;
25279;SDS011;13225;47.804;12.116;2023-04-10T13:29:22;4.13;;;3.25;;
25279;SDS011;13225;47.804;12.116;2023-04-10T13:31:48;2.90;;;2.45;;
25279;SDS011;13225;47.804;12.116;2023-04-10T13:34:14;3.92;;;3.25;;
25279;SDS011;13225;47.804;12.116;2023-04-10T13:36:40;4.57;;;3.47;;
25279;SDS011;13225;47.804;12.116;2023-04-10T13:39:06;3.35;;;2.60;;
25279;SDS011;13225;47.804;12.116;2023-04-10T13:41:31;2.72;;;2.17;;
25279;SDS011;13225;47.804;12.116;2023-04-10T13:43:57;4.25;;;3.17;;
25279;SDS011;13225;47.804;12.116;2023-04-10T13:46:22;2.55;;;2.30;;
25279;SDS011;13225;47.804;12.116;2023-04-10T13:48:48;7.63;;;3.00;;
25279;SDS011;13225;47.804;12.116;2023-04-10T13:51:13;3.70;;;3.13;;
25279;SDS011;13225;47.804;12.116;2023-04-10T13:53:39;3.33;;;3.03;;
25279;SDS011;13225;47.804;12.116;2023-04-10T13:56:05;3.67;;;3.10;;
25279;SDS011;13225;47.804;12.116;2023-04-10T13:58:31;3.80;;;3.40;;
25279;SDS011;13225;47.804;12.116;2023-04-10T14:00:59;3.33;;;2.95;;
25279;SDS011;13225;47.804;12.116;2023-04-10T14:03:25;3.58;;;3.10;;
25279;SDS011;13225;47.804;12.116;2023-04-10T14:05:51;5.05;;;3.15;;
25279;SDS011;13225;47.804;12.116;2023-04-10T14:08:17;5.38;;;3.30;;
25279;SDS011;13225;47.804;12.116;2023-04-10T14:10:44;3.70;;;3.22;;
25279;SDS011;13225;47.804;12.116;2023-04-10T14:13:14;2.85;;;2.55;;
25279;SDS011;13225;47.804;12.116;2023-04-10T14:15:41;3.85;;;2.67;;
25279;SDS011;13225;47.804;12.116;2023-04-10T14:18:06;3.70;;;3.05;;
25279;SDS011;13225;47.804;12.116;2023-04-10T14:20:32;3.33;;;2.90;;
25279;SDS011;13225;47.804;12.116;2023-04-10T14:22:57;3.75;;;3.35;;
25279;SDS011;13225;47.804;12.116;2023-04-10T14:25:23;3.17;;;2.50;;
25279;SDS011;13225;47.804;12.116;2023-04-10T14:27:49;3.42;;;2.60;;
25279;SDS011;13225;47.804;12.116;2023-04-10T14:30:15;3.33;;;2.80;;
25279;SDS011;13225;47.804;12.116;2023-04-10T14:32:41;3.47;;;3.00;;
25279;SDS011;13225;47.804;12.116;2023-04-10T14:35:07;2.70;;;2.50;;
25279;SDS011;13225;47.804;12.116;2023-04-10T14:37:34;2.47;;;1.85;;
25279;SDS011;13225;47.804;12.116;2023-04-10T14:40:02;3.67;;;3.20;;
25279;SDS011;13225;47.804;12.116;2023-04-10T14:42:31;2.95;;;2.67;;
25279;SDS011;13225;47.804;12.116;2023-04-10T14:44:56;3.08;;;2.42;;
25279;SDS011;13225;47.804;12.116;2023-04-10T14:47:23;3.50;;;2.97;;
25279;SDS011;13225;47.804;12.116;2023-04-10T14:49:48;2.60;;;2.20;;
25279;SDS011;13225;47.804;12.116;2023-04-10T14:52:14;4.07;;;3.28;;
25279;SDS011;13225;47.804;12.116;2023-04-10T14:54:40;3.28;;;2.47;;
25279;SDS011;13225;47.804;12.116;2023-04-10T14:57:06;3.88;;;3.15;;
25279;SDS011;13225;47.804;12.116;2023-04-10T14:59:31;2.38;;;2.13;;
25279;SDS011;13225;47.804;12.116;2023-04-10T15:01:58;3.05;;;2.55;;
25279;SDS011;13225;47.804;12.116;2023-04-10T15:04:24;3.38;;;2.67;;
25279;SDS011;13225;47.804;12.116;2023-04-10T15:06:50;5.53;;;3.22;;
25279;SDS011;13225;47.804;12.116;2023-04-10T15:09:16;3.20;;;2.80;;
25279;SDS011;13225;47.804;12.116;2023-04-10T15:11:41;4.07;;;3.08;;
25279;SDS011;13225;47.804;12.116;2023-04-10T15:14:07;3.50;;;2.80;;
25279;SDS011;13225;47.804;12.116;2023-04-10T15:16:33;4.13;;;3.05;;
25279;SDS011;13225;47.804;12.116;2023-04-10T15:18:58;3.08;;;2.78;;
25279;SDS011;13225;47.804;12.116;2023-04-10T15:21:24;3.83;;;3.22;;